Time;durP1;ratioP1;P1;durP2;ratioP2;P2;SDS_P1;SDS_P2;PMS_P1;PMS_P2;Temp;Humidity;BMP_temperature;BMP_pressure;BME280_temperature;BME280_humidity;BME280_pressure;Samples;Min_cycle;Max_cycle;Signal;HPM_P1;HPM_P2
2021/03/10 00:02:18;;;;;;;8.35;5.90;;;-10.00;87.20;;;;;;4364935;32;20082;-59
2021/03/10 00:04:44;;;;;;;6.70;5.55;;;-10.00;88.60;;;;;;4365126;32;20070;-59
2021/03/10 00:07:10;;;;;;;8.43;5.97;;;-10.00;88.10;;;;;;4377522;32;20070;-59
2021/03/10 00:09:37;;;;;;;9.05;5.80;;;-10.30;87.70;;;;;;4351987;32;20597;-59
2021/03/10 00:12:03;;;;;;;8.18;5.72;;;-10.30;88.80;;;;;;4377572;32;20073;-58
2021/03/10 00:14:30;;;;;;;7.45;5.97;;;-10.50;88.60;;;;;;4365314;32;20054;-60
2021/03/10 00:16:56;;;;;;;7.25;5.30;;;-10.40;88.00;;;;;;4365112;32;20062;-58
2021/03/10 00:19:22;;;;;;;6.75;5.43;;;-10.20;88.40;;;;;;4390681;32;20096;-60
2021/03/10 00:21:49;;;;;;;8.18;5.28;;;-10.10;87.60;;;;;;4365036;32;20501;-58
2021/03/10 00:24:15;;;;;;;6.93;5.57;;;-9.90;86.40;;;;;;4389568;32;20144;-58
2021/03/10 00:26:41;;;;;;;6.53;4.93;;;-10.10;84.80;;;;;;4391196;32;20445;-58
2021/03/10 00:29:08;;;;;;;7.50;5.43;;;-10.10;85.60;;;;;;4390027;32;20678;-59
2021/03/10 00:31:34;;;;;;;7.97;5.55;;;-10.00;85.20;;;;;;4386994;32;20093;-58
2021/03/10 00:34:00;;;;;;;7.90;5.22;;;-10.20;86.20;;;;;;4367148;32;20082;-59
2021/03/10 00:36:26;;;;;;;7.15;5.07;;;-10.30;84.50;;;;;;4377145;32;20089;-58
2021/03/10 00:38:53;;;;;;;7.65;5.32;;;-10.20;85.90;;;;;;4389655;32;20177;-58
2021/03/10 00:41:19;;;;;;;7.32;5.62;;;-10.20;85.40;;;;;;4380417;32;20587;-59
2021/03/10 00:43:45;;;;;;;6.85;5.10;;;-10.50;84.30;;;;;;4367644;32;20512;-59
2021/03/10 00:46:11;;;;;;;6.65;4.87;;;-10.50;85.40;;;;;;4394340;32;20536;-60
2021/03/10 00:48:38;;;;;;;8.85;5.37;;;-10.70;85.60;;;;;;4354814;32;20145;-59
2021/03/10 00:51:04;;;;;;;6.85;5.07;;;-10.70;85.70;;;;;;4393931;32;20121;-59
2021/03/10 00:53:31;;;;;;;9.98;5.50;;;-10.50;84.50;;;;;;4379989;32;20157;-58
2021/03/10 00:55:57;;;;;;;7.05;5.65;;;-10.30;84.00;;;;;;4392768;32;20066;-58
2021/03/10 00:58:23;;;;;;;6.37;5.12;;;-10.30;83.40;;;;;;4392834;32;20158;-58
2021/03/10 01:00:49;;;;;;;7.35;5.50;;;-10.20;83.70;;;;;;4380318;32;20525;-58
2021/03/10 01:03:16;;;;;;;6.65;5.30;;;-10.40;83.00;;;;;;4393990;32;20101;-58
2021/03/10 01:05:43;;;;;;;7.90;5.65;;;-10.50;83.50;;;;;;4367410;32;20142;-58
2021/03/10 01:08:10;;;;;;;7.93;5.25;;;-10.30;83.60;;;;;;4393091;32;20098;-58
2021/03/10 01:10:39;;;;;;;7.57;5.62;;;-10.30;82.20;;;;;;4367979;32;20162;-59
2021/03/10 01:13:06;;;;;;;8.43;5.87;;;-10.10;81.60;;;;;;4380210;32;20165;-57
2021/03/10 01:15:32;;;;;;;8.13;5.72;;;-10.20;81.20;;;;;;4380305;32;20153;-58
2021/03/10 01:17:58;;;;;;;7.07;5.05;;;-10.40;81.80;;;;;;4379987;32;20084;-59
2021/03/10 01:20:26;;;;;;;9.38;5.37;;;-10.40;82.50;;;;;;4380401;32;20074;-59
2021/03/10 01:22:52;;;;;;;7.65;5.53;;;-9.90;82.50;;;;;;4367851;32;20583;-58
2021/03/10 01:25:19;;;;;;;8.23;5.47;;;-9.80;79.70;;;;;;4380760;32;20084;-58
2021/03/10 01:27:45;;;;;;;9.60;6.93;;;-10.20;79.40;;;;;;4359396;32;20104;-57
2021/03/10 01:30:14;;;;;;;7.82;5.40;;;-9.70;78.70;;;;;;4366466;32;20182;-58
2021/03/10 01:32:40;;;;;;;8.63;6.10;;;-9.70;78.90;;;;;;4376639;32;20162;-58
2021/03/10 01:35:07;;;;;;;7.97;5.37;;;-9.90;77.70;;;;;;4352141;32;20156;-58
2021/03/10 01:37:34;;;;;;;8.07;5.78;;;-9.60;78.30;;;;;;4352297;32;20150;-58
2021/03/10 01:40:02;;;;;;;7.68;5.72;;;-9.70;77.10;;;;;;4369923;32;20514;-57
2021/03/10 01:42:28;;;;;;;7.87;6.10;;;-9.60;77.70;;;;;;4377207;32;20452;-58
2021/03/10 01:44:55;;;;;;;7.97;6.12;;;-10.10;78.10;;;;;;4376828;32;20061;-59
2021/03/10 01:47:21;;;;;;;8.57;6.15;;;-9.80;79.00;;;;;;4380305;32;20070;-61
2021/03/10 01:49:47;;;;;;;8.15;5.82;;;-10.20;79.60;;;;;;4381328;32;20101;-59
2021/03/10 01:52:13;;;;;;;8.55;5.72;;;-10.30;80.60;;;;;;4366454;32;20070;-58
2021/03/10 01:54:40;;;;;;;6.97;5.20;;;-10.00;79.10;;;;;;4391986;32;20082;-59
2021/03/10 01:57:06;;;;;;;8.15;5.78;;;-10.10;79.80;;;;;;4355198;32;20081;-59
2021/03/10 01:59:32;;;;;;;9.15;5.40;;;-9.90;79.70;;;;;;4380316;32;20072;-58
2021/03/10 02:01:59;;;;;;;7.00;5.43;;;-9.70;79.30;;;;;;4393197;32;20081;-60
2021/03/10 02:04:25;;;;;;;7.25;5.50;;;-9.70;77.80;;;;;;4401408;32;20068;-58
2021/03/10 02:07:06;;;;;;;8.60;5.60;;;-10.00;78.10;;;;;;4400433;32;20078;-59
2021/03/10 02:09:50;;;;;;;8.10;5.78;;;-10.50;80.70;;;;;;4376463;32;20066;-58
2021/03/10 02:12:43;;;;;;;9.90;6.78;;;-10.20;82.00;;;;;;4389605;32;20495;-58
2021/03/10 02:15:21;;;;;;;9.93;6.30;;;-10.30;81.50;;;;;;4377117;32;20133;-58
2021/03/10 02:17:54;;;;;;;8.00;5.87;;;-10.80;82.50;;;;;;4360973;32;20071;-60
2021/03/10 02:20:20;;;;;;;9.77;6.95;;;-10.20;82.30;;;;;;4401974;32;20077;-59
2021/03/10 02:23:15;;;;;;;9.43;6.45;;;-10.00;82.10;;;;;;4387842;32;20082;-61
2021/03/10 02:26:06;;;;;;;10.25;7.05;;;-10.30;81.00;;;;;;4402876;32;20142;-58
2021/03/10 02:28:32;;;;;;;9.15;6.43;;;-10.40;80.60;;;;;;4402368;32;20133;-59
2021/03/10 02:30:58;;;;;;;8.75;5.68;;;-10.50;82.90;;;;;;4381605;32;20074;-58
2021/03/10 02:33:29;;;;;;;8.27;6.15;;;-10.30;81.20;;;;;;4393630;32;20080;-58
2021/03/10 02:36:10;;;;;;;9.98;6.22;;;-10.80;82.80;;;;;;4362337;32;20050;-59
2021/03/10 02:38:45;;;;;;;8.70;6.18;;;-10.60;81.60;;;;;;4388175;32;20096;-58
2021/03/10 02:41:12;;;;;;;8.57;6.18;;;-10.70;81.60;;;;;;4372819;32;20092;-58
2021/03/10 02:43:39;;;;;;;9.50;6.60;;;-10.90;82.20;;;;;;4367470;32;20096;-60
2021/03/10 02:46:05;;;;;;;8.73;6.50;;;-10.90;82.40;;;;;;4370214;32;20124;-60
2021/03/10 02:48:33;;;;;;;9.75;6.30;;;-11.20;82.40;;;;;;4361480;32;20074;-58
2021/03/10 02:50:59;;;;;;;7.82;5.78;;;-11.20;84.10;;;;;;4375919;32;20061;-65
2021/03/10 02:53:25;;;;;;;8.85;6.07;;;-11.10;83.90;;;;;;4363623;32;20082;-59
2021/03/10 02:55:52;;;;;;;9.38;6.22;;;-11.00;83.10;;;;;;4387380;32;20100;-59
2021/03/10 02:58:18;;;;;;;8.80;6.35;;;-11.10;82.50;;;;;;4387636;32;20133;-59
2021/03/10 03:00:44;;;;;;;8.13;5.85;;;-11.50;83.60;;;;;;4375747;32;20069;-59
2021/03/10 03:03:11;;;;;;;9.43;6.55;;;-11.40;85.20;;;;;;4400014;32;20073;-58
2021/03/10 03:05:38;;;;;;;8.65;6.30;;;-11.20;83.90;;;;;;4361344;32;20077;-58
2021/03/10 03:08:05;;;;;;;9.02;6.30;;;-11.50;83.90;;;;;;4381544;32;20071;-60
2021/03/10 03:10:35;;;;;;;8.82;6.37;;;-11.20;83.80;;;;;;4343521;32;20061;-58
2021/03/10 03:13:02;;;;;;;10.23;6.43;;;-11.50;83.40;;;;;;4355504;32;20485;-59
2021/03/10 03:15:29;;;;;;;9.55;6.37;;;-11.30;84.20;;;;;;4366351;32;20073;-58
2021/03/10 03:17:55;;;;;;;9.48;6.78;;;-11.70;84.10;;;;;;4378649;32;20444;-58
2021/03/10 03:20:23;;;;;;;9.50;6.45;;;-11.70;84.60;;;;;;4369704;32;20062;-59
2021/03/10 03:22:55;;;;;;;9.65;6.90;;;-11.30;84.40;;;;;;4355679;32;20070;-58
2021/03/10 03:25:23;;;;;;;10.55;6.68;;;-11.30;83.80;;;;;;4366039;32;20512;-60
2021/03/10 03:27:57;;;;;;;10.85;7.03;;;-11.70;84.00;;;;;;4366807;32;20079;-59
2021/03/10 03:30:34;;;;;;;9.07;6.22;;;-12.00;84.00;;;;;;4365900;32;20130;-58
2021/03/10 03:33:01;;;;;;;8.55;6.55;;;-11.50;84.40;;;;;;4377771;32;20070;-58
2021/03/10 03:35:27;;;;;;;8.52;5.97;;;-11.80;82.70;;;;;;4372623;32;20066;-59
2021/03/10 03:37:54;;;;;;;9.15;6.82;;;-12.10;84.10;;;;;;4382985;32;20069;-60
2021/03/10 03:40:23;;;;;;;10.35;7.03;;;-12.30;84.20;;;;;;4366387;32;20165;-59
2021/03/10 03:42:50;;;;;;;10.85;7.50;;;-12.20;84.90;;;;;;4353711;32;20066;-59
2021/03/10 03:45:18;;;;;;;9.30;6.00;;;-12.00;84.40;;;;;;4377718;32;20449;-58
2021/03/10 03:47:49;;;;;;;10.32;6.47;;;-11.80;82.80;;;;;;4377534;32;20089;-58
2021/03/10 03:50:15;;;;;;;10.20;6.45;;;-11.60;82.60;;;;;;4365078;32;20096;-60
2021/03/10 03:52:42;;;;;;;10.80;7.22;;;-11.60;81.00;;;;;;4377724;32;20117;-58
2021/03/10 03:55:09;;;;;;;9.60;5.10;;;-11.70;80.00;;;;;;4378078;32;20062;-59
2021/03/10 03:57:37;;;;;;;11.30;7.28;;;-11.80;80.10;;;;;;4365435;32;20074;-58
2021/03/10 04:00:09;;;;;;;12.40;7.53;;;-11.30;81.60;;;;;;4353211;32;20127;-58
2021/03/10 04:02:35;;;;;;;9.02;6.03;;;-11.00;78.30;;;;;;4377493;32;20077;-58
2021/03/10 04:05:02;;;;;;;11.20;7.00;;;-11.60;77.80;;;;;;4377240;32;20068;-58
2021/03/10 04:07:28;;;;;;;10.50;6.15;;;-11.60;79.30;;;;;;4350481;32;20094;-59
2021/03/10 04:09:54;;;;;;;7.87;5.25;;;-12.20;80.00;;;;;;4362400;32;20085;-58
2021/03/10 04:12:21;;;;;;;7.15;4.50;;;-11.70;80.50;;;;;;4362514;32;20140;-58
2021/03/10 04:14:47;;;;;;;7.57;5.03;;;-11.00;79.40;;;;;;4349734;32;20066;-58
2021/03/10 04:17:14;;;;;;;7.75;4.55;;;-10.90;76.90;;;;;;4376891;32;20437;-58
2021/03/10 04:19:41;;;;;;;9.48;4.82;;;-11.00;76.90;;;;;;4389850;32;20069;-59
2021/03/10 04:22:08;;;;;;;9.48;5.90;;;-10.40;76.30;;;;;;4389659;32;20529;-58
2021/03/10 04:24:34;;;;;;;7.32;4.50;;;-10.30;73.70;;;;;;4364619;32;20070;-57
2021/03/10 04:27:00;;;;;;;8.52;5.00;;;-10.40;72.60;;;;;;4391257;32;20070;-58
2021/03/10 04:29:26;;;;;;;12.60;8.25;;;-10.60;72.80;;;;;;4377338;32;20100;-58
2021/03/10 04:31:53;;;;;;;7.22;4.82;;;-10.80;73.40;;;;;;4377577;32;20486;-61
2021/03/10 04:34:19;;;;;;;8.45;5.12;;;-10.80;74.70;;;;;;4389638;32;20069;-58
2021/03/10 04:36:45;;;;;;;7.12;5.00;;;-10.30;73.00;;;;;;4390606;32;20073;-58
2021/03/10 04:39:11;;;;;;;10.10;5.10;;;-10.30;71.40;;;;;;4391913;32;20081;-59
2021/03/10 04:41:37;;;;;;;9.25;5.22;;;-10.10;70.80;;;;;;4391291;32;20139;-59
2021/03/10 04:44:17;;;;;;;7.97;4.83;;;-10.10;69.20;;;;;;3815205;37;20058;-58
2021/03/10 04:46:44;;;;;;;8.82;5.43;;;-10.10;70.00;;;;;;4382804;32;20534;-59
2021/03/10 04:49:10;;;;;;;5.43;3.42;;;-10.20;70.70;;;;;;4391515;32;20181;-59
2021/03/10 04:51:37;;;;;;;8.73;5.95;;;-10.40;71.20;;;;;;4389675;32;20085;-59
2021/03/10 04:54:03;;;;;;;8.68;5.82;;;-10.20;72.90;;;;;;4363010;32;20545;-59
2021/03/10 04:56:29;;;;;;;9.75;6.47;;;-10.60;72.80;;;;;;4375360;32;20161;-59
2021/03/10 04:58:55;;;;;;;8.10;4.85;;;-10.20;73.30;;;;;;4362841;32;20085;-58
2021/03/10 05:01:21;;;;;;;7.25;4.65;;;-10.00;71.80;;;;;;4375141;32;20059;-59
2021/03/10 05:03:47;;;;;;;8.15;5.62;;;-10.10;71.70;;;;;;4370586;32;20159;-58
2021/03/10 05:06:14;;;;;;;8.18;5.60;;;-10.00;72.50;;;;;;4380265;32;20142;-59
2021/03/10 05:08:40;;;;;;;6.55;4.60;;;-10.00;71.00;;;;;;4377962;32;20135;-58
2021/03/10 05:11:06;;;;;;;8.90;6.62;;;-9.90;69.70;;;;;;4404167;32;20069;-59
2021/03/10 05:13:33;;;;;;;11.70;6.22;;;-10.10;68.70;;;;;;4353177;32;20085;-59
2021/03/10 05:15:59;;;;;;;8.80;6.30;;;-9.90;69.90;;;;;;4389998;32;20483;-58
2021/03/10 05:18:25;;;;;;;7.68;5.72;;;-10.10;70.00;;;;;;4368677;32;20069;-58
2021/03/10 05:20:51;;;;;;;10.50;7.18;;;-9.70;69.50;;;;;;4375000;32;20074;-58
2021/03/10 05:23:17;;;;;;;10.02;6.72;;;-8.70;67.60;;;;;;4389202;32;20063;-58
2021/03/10 05:25:43;;;;;;;9.95;6.60;;;-8.80;64.70;;;;;;4345371;32;20074;-58
2021/03/10 05:28:10;;;;;;;10.38;7.32;;;-8.60;65.80;;;;;;4378848;32;20468;-58
2021/03/10 05:30:36;;;;;;;10.60;6.70;;;-8.20;62.90;;;;;;4376226;32;20116;-58
2021/03/10 05:33:02;;;;;;;10.07;6.75;;;-8.20;61.60;;;;;;4380347;32;20500;-58
2021/03/10 05:35:28;;;;;;;11.82;6.62;;;-7.90;60.00;;;;;;4374457;32;20508;-59
2021/03/10 05:37:54;;;;;;;10.13;6.60;;;-9.20;62.50;;;;;;4375083;32;20480;-57
2021/03/10 05:40:21;;;;;;;8.75;5.82;;;-9.30;62.00;;;;;;4374594;32;20166;-58
2021/03/10 05:42:47;;;;;;;9.63;5.47;;;-9.60;61.90;;;;;;4337318;32;20134;-61
2021/03/10 05:45:13;;;;;;;5.78;3.97;;;-9.50;63.30;;;;;;4350112;32;20070;-58
2021/03/10 05:47:40;;;;;;;9.20;6.50;;;-9.30;62.90;;;;;;4349015;32;20143;-57
2021/03/10 05:50:07;;;;;;;10.50;7.15;;;-8.10;61.80;;;;;;4328575;32;20147;-58
2021/03/10 05:52:36;;;;;;;9.60;6.32;;;-9.00;58.00;;;;;;4361374;32;20078;-58
2021/03/10 05:55:03;;;;;;;8.77;6.00;;;-9.40;61.70;;;;;;4356058;32;20094;-59
2021/03/10 05:57:29;;;;;;;8.75;6.50;;;-9.80;63.20;;;;;;4353579;32;20062;-60
2021/03/10 05:59:55;;;;;;;9.48;5.87;;;-9.60;63.50;;;;;;4343901;32;20182;-59
2021/03/10 06:02:22;;;;;;;8.63;5.93;;;-9.60;62.50;;;;;;4335535;32;20094;-59
2021/03/10 06:04:48;;;;;;;8.27;6.03;;;-8.40;58.50;;;;;;4341274;32;20065;-60
2021/03/10 06:07:24;;;;;;;10.95;6.70;;;-8.80;58.70;;;;;;4350637;32;20162;-59
2021/03/10 06:10:06;;;;;;;7.72;5.93;;;-8.50;59.10;;;;;;4361206;32;20142;-61
2021/03/10 06:12:43;;;;;;;9.30;5.65;;;-8.90;59.50;;;;;;4337307;32;20066;-60
2021/03/10 06:15:11;;;;;;;8.93;6.00;;;-8.30;58.40;;;;;;4351432;32;20078;-59
2021/03/10 06:17:49;;;;;;;11.82;6.25;;;-8.50;58.40;;;;;;4338244;32;20069;-60
2021/03/10 06:20:31;;;;;;;7.97;5.30;;;-9.60;63.10;;;;;;4347911;32;20165;-59
2021/03/10 06:22:57;;;;;;;6.95;4.47;;;-9.90;64.30;;;;;;4339875;32;20066;-60
2021/03/10 06:25:37;;;;;;;8.88;5.68;;;-9.20;66.60;;;;;;4350439;32;20078;-60
2021/03/10 06:28:04;;;;;;;8.32;5.43;;;-8.70;62.50;;;;;;4358336;32;20622;-60
2021/03/10 06:30:42;;;;;;;8.27;5.05;;;-10.20;65.40;;;;;;4350974;32;20513;-60
2021/03/10 06:33:09;;;;;;;5.78;3.87;;;-9.80;68.40;;;;;;4336545;32;20246;-59
2021/03/10 06:35:36;;;;;;;7.62;5.05;;;-9.80;66.80;;;;;;4334977;32;20508;-58
2021/03/10 06:38:13;;;;;;;8.25;5.78;;;-10.20;66.20;;;;;;4324973;32;20082;-59
2021/03/10 06:41:06;;;;;;;8.13;5.50;;;-10.30;67.80;;;;;;4336689;32;20145;-59
2021/03/10 06:43:42;;;;;;;7.32;5.50;;;-10.80;69.10;;;;;;4355105;32;20094;-59
2021/03/10 06:46:17;;;;;;;8.40;5.40;;;-11.30;70.70;;;;;;4347769;32;20081;-59
2021/03/10 06:49:03;;;;;;;6.85;4.70;;;-11.10;70.70;;;;;;4336288;32;20078;-58
2021/03/10 06:51:33;;;;;;;7.47;5.37;;;-11.60;70.70;;;;;;4334268;32;20170;-61
2021/03/10 06:54:00;;;;;;;8.40;5.37;;;-11.70;71.30;;;;;;4344429;32;20180;-59
2021/03/10 06:56:28;;;;;;;7.35;5.15;;;-11.30;71.00;;;;;;4348264;32;20086;-59
2021/03/10 06:58:54;;;;;;;7.43;4.37;;;-11.40;70.90;;;;;;4344932;32;20506;-64
2021/03/10 07:01:21;;;;;;;8.57;5.45;;;-11.20;70.60;;;;;;4369861;32;20081;-59
2021/03/10 07:03:47;;;;;;;10.73;5.40;;;-11.70;70.90;;;;;;4351075;32;20094;-59
2021/03/10 07:06:14;;;;;;;8.77;4.80;;;-11.70;70.90;;;;;;4355869;32;20077;-60
2021/03/10 07:08:41;;;;;;;7.47;5.47;;;-11.50;71.70;;;;;;4360430;32;20062;-59
2021/03/10 07:11:07;;;;;;;9.68;6.03;;;-11.50;71.60;;;;;;4346484;32;20456;-58
2021/03/10 07:13:34;;;;;;;11.43;6.37;;;-11.50;70.60;;;;;;4342873;32;20069;-58
2021/03/10 07:16:00;;;;;;;7.80;5.60;;;-11.50;70.40;;;;;;4344744;32;20074;-60
2021/03/10 07:18:27;;;;;;;7.95;6.10;;;-11.70;71.40;;;;;;4354907;32;20086;-60
2021/03/10 07:20:54;;;;;;;7.37;5.35;;;-11.90;70.50;;;;;;4341175;32;20136;-60
2021/03/10 07:23:20;;;;;;;8.38;5.43;;;-11.70;71.00;;;;;;4346730;32;20073;-61
2021/03/10 07:25:47;;;;;;;11.18;5.72;;;-11.10;69.70;;;;;;4335461;32;20164;-59
2021/03/10 07:28:25;;;;;;;6.78;4.47;;;-11.70;70.90;;;;;;4335695;32;20071;-61
2021/03/10 07:30:51;;;;;;;10.68;6.45;;;-11.40;71.20;;;;;;4353503;32;20089;-61
2021/03/10 07:33:20;;;;;;;10.43;6.18;;;-11.60;71.20;;;;;;4370016;32;20143;-61
2021/03/10 07:35:59;;;;;;;7.28;4.53;;;-11.50;71.00;;;;;;4335839;32;20050;-59
2021/03/10 07:38:39;;;;;;;6.62;4.90;;;-11.40;71.70;;;;;;4328077;32;20086;-60
2021/03/10 07:41:10;;;;;;;6.53;3.75;;;-11.80;70.40;;;;;;4336022;32;20062;-59
2021/03/10 07:43:38;;;;;;;9.55;4.72;;;-11.70;71.90;;;;;;4330027;32;20093;-59
2021/03/10 07:46:17;;;;;;;6.43;4.28;;;-11.10;70.80;;;;;;4357274;32;20090;-60
2021/03/10 07:48:43;;;;;;;8.68;5.57;;;-11.30;69.50;;;;;;4338544;32;20520;-60
2021/03/10 07:51:10;;;;;;;9.18;4.87;;;-11.60;69.30;;;;;;4347632;32;20173;-60
2021/03/10 07:53:39;;;;;;;8.05;5.35;;;-11.30;70.20;;;;;;4336287;32;20502;-59
2021/03/10 07:56:07;;;;;;;8.07;4.97;;;-11.30;69.90;;;;;;4333240;32;20063;-59
2021/03/10 07:58:33;;;;;;;7.43;5.15;;;-11.40;70.20;;;;;;4347279;32;20509;-59
2021/03/10 08:01:13;;;;;;;7.37;4.47;;;-11.80;70.40;;;;;;4347658;32;20489;-59
2021/03/10 08:03:45;;;;;;;4.80;2.87;;;-11.20;71.00;;;;;;4345665;32;20059;-59
2021/03/10 08:06:17;;;;;;;8.23;5.53;;;-11.00;69.50;;;;;;4342827;32;20085;-58
2021/03/10 08:08:44;;;;;;;7.78;4.72;;;-11.40;70.20;;;;;;4344536;32;20156;-61
2021/03/10 08:11:25;;;;;;;7.80;5.00;;;-11.20;70.40;;;;;;4359488;32;20587;-60
2021/03/10 08:13:58;;;;;;;10.15;5.50;;;-11.20;70.60;;;;;;4351450;32;20086;-59
2021/03/10 08:16:25;;;;;;;5.72;3.72;;;-11.50;71.30;;;;;;4330202;32;20113;-58
2021/03/10 08:18:51;;;;;;;6.82;5.25;;;-11.50;72.20;;;;;;4339143;32;20082;-59
2021/03/10 08:21:18;;;;;;;8.77;5.28;;;-11.20;70.60;;;;;;4342651;32;20105;-60
2021/03/10 08:23:46;;;;;;;8.30;5.10;;;-11.10;70.20;;;;;;4343745;32;20070;-59
2021/03/10 08:26:12;;;;;;;4.70;2.85;;;-11.10;70.70;;;;;;4346682;32;20078;-57
2021/03/10 08:28:40;;;;;;;7.10;4.97;;;-11.60;70.90;;;;;;4341693;32;20075;-60
2021/03/10 08:31:08;;;;;;;7.40;5.62;;;-11.50;71.60;;;;;;4349357;32;20572;-59
2021/03/10 08:33:51;;;;;;;7.85;4.70;;;-11.40;71.70;;;;;;4337611;32;20078;-61
2021/03/10 08:36:38;;;;;;;6.43;4.28;;;-11.30;71.20;;;;;;4341532;32;20063;-60
2021/03/10 08:39:11;;;;;;;7.18;4.60;;;-11.30;70.90;;;;;;4355398;32;20082;-59
2021/03/10 08:41:52;;;;;;;7.47;4.40;;;-11.70;71.40;;;;;;4353753;32;20485;-58
2021/03/10 08:44:20;;;;;;;8.85;5.12;;;-11.30;71.30;;;;;;4337638;32;20121;-58
2021/03/10 08:46:47;;;;;;;9.10;5.78;;;-10.40;71.00;;;;;;4335461;32;20079;-58
2021/03/10 08:49:32;;;;;;;7.50;5.82;;;-10.80;68.20;;;;;;4325347;32;20498;-58
2021/03/10 08:52:13;;;;;;;7.20;4.85;;;-11.20;70.40;;;;;;4336167;32;20170;-59
2021/03/10 08:54:57;;;;;;;7.15;4.18;;;-10.30;70.40;;;;;;4352776;32;20097;-58
2021/03/10 08:57:31;;;;;;;6.93;5.50;;;-10.30;69.50;;;;;;4347228;32;20179;-59
2021/03/10 08:59:59;;;;;;;7.93;4.78;;;-11.20;69.00;;;;;;4343990;32;20162;-59
2021/03/10 09:02:30;;;;;;;7.45;4.75;;;-11.20;71.50;;;;;;4350022;32;20121;-58
2021/03/10 09:04:57;;;;;;;7.10;5.37;;;-11.40;72.60;;;;;;4341500;32;20094;-63
2021/03/10 09:07:23;;;;;;;9.68;5.30;;;-11.10;72.20;;;;;;4358691;32;20138;-59
2021/03/10 09:10:02;;;;;;;7.85;5.50;;;-10.90;72.10;;;;;;4356002;32;20155;-60
2021/03/10 09:12:28;;;;;;;8.70;4.80;;;-11.20;69.60;;;;;;4328803;32;20067;-59
2021/03/10 09:14:55;;;;;;;7.70;4.40;;;-11.10;70.70;;;;;;4339430;32;20077;-59
2021/03/10 09:17:32;;;;;;;8.43;5.37;;;-11.00;71.10;;;;;;4340952;32;20081;-59
2021/03/10 09:20:00;;;;;;;7.15;4.50;;;-10.40;69.30;;;;;;4341247;32;20150;-59
2021/03/10 09:22:26;;;;;;;7.25;4.30;;;-10.70;70.20;;;;;;4354261;32;20128;-59
2021/03/10 09:25:18;;;;;;;6.32;3.85;;;-10.60;69.60;;;;;;4342705;32;20512;-59
2021/03/10 09:27:45;;;;;;;7.72;5.25;;;-10.80;69.80;;;;;;4338233;32;20445;-60
2021/03/10 09:30:30;;;;;;;7.72;5.07;;;-11.40;70.80;;;;;;4336238;32;20122;-60
2021/03/10 09:32:56;;;;;;;8.35;4.85;;;-11.30;71.80;;;;;;4334492;32;20083;-58
2021/03/10 09:35:34;;;;;;;6.80;4.68;;;-10.80;71.30;;;;;;4337130;32;20086;-59
2021/03/10 09:38:06;;;;;;;9.55;5.32;;;-10.90;71.00;;;;;;4329536;32;20082;-62
2021/03/10 09:40:53;;;;;;;7.37;5.00;;;-11.10;69.50;;;;;;4351162;32;20103;-59
2021/03/10 09:43:27;;;;;;;6.43;4.47;;;-10.70;69.20;;;;;;4351857;32;20493;-61
2021/03/10 09:46:02;;;;;;;8.60;5.03;;;-11.30;70.40;;;;;;4348405;32;20112;-60
2021/03/10 09:48:33;;;;;;;7.43;4.78;;;-11.00;69.90;;;;;;4333878;32;20088;-57
2021/03/10 09:51:15;;;;;;;8.60;4.53;;;-11.10;71.20;;;;;;4324797;32;20072;-57
2021/03/10 09:53:50;;;;;;;7.72;4.85;;;-9.90;69.30;;;;;;4339233;32;20117;-60
2021/03/10 09:56:20;;;;;;;7.68;5.22;;;-10.70;70.30;;;;;;4358655;32;20066;-58
2021/03/10 09:58:57;;;;;;;8.15;5.22;;;-11.30;71.20;;;;;;4352442;32;20185;-58
2021/03/10 10:01:24;;;;;;;6.93;4.62;;;-11.60;72.00;;;;;;4349838;32;20109;-59
2021/03/10 10:03:52;;;;;;;7.57;5.12;;;-11.50;72.20;;;;;;4342150;32;20085;-59
2021/03/10 10:06:19;;;;;;;8.23;3.75;;;-11.40;72.50;;;;;;4354111;32;20166;-61
2021/03/10 10:08:46;;;;;;;9.52;4.82;;;-11.30;73.70;;;;;;4360502;32;20059;-60
2021/03/10 10:11:13;;;;;;;6.82;5.40;;;-11.50;73.80;;;;;;4336760;32;20130;-61
2021/03/10 10:13:41;;;;;;;7.62;5.95;;;-11.90;74.00;;;;;;4319684;32;20473;-60
2021/03/10 10:16:15;;;;;;;7.37;5.05;;;-11.70;75.50;;;;;;4320141;32;20177;-62
2021/03/10 10:18:41;;;;;;;6.62;5.00;;;-11.30;74.80;;;;;;4320824;32;20552;-60
2021/03/10 10:21:10;;;;;;;10.00;5.40;;;-11.60;73.50;;;;;;4335412;32;20063;-60
2021/03/10 10:23:36;;;;;;;7.03;4.90;;;-11.70;73.40;;;;;;4335824;32;20104;-59
2021/03/10 10:26:03;;;;;;;6.75;4.20;;;-11.50;73.50;;;;;;4357013;32;20152;-60
2021/03/10 10:28:29;;;;;;;9.43;4.72;;;-11.40;72.50;;;;;;4334383;32;20090;-59
2021/03/10 10:30:56;;;;;;;8.77;5.15;;;-11.30;72.40;;;;;;4352195;32;20102;-59
2021/03/10 10:33:23;;;;;;;7.82;5.43;;;-11.30;72.20;;;;;;4335319;32;20493;-58
2021/03/10 10:35:49;;;;;;;8.23;4.50;;;-11.50;71.80;;;;;;4359851;32;20071;-58
2021/03/10 10:38:15;;;;;;;9.80;4.47;;;-11.20;71.80;;;;;;4341922;32;20058;-58
2021/03/10 10:40:42;;;;;;;6.50;4.95;;;-11.20;72.00;;;;;;4376075;32;20070;-59
2021/03/10 10:43:08;;;;;;;7.03;4.68;;;-11.20;71.60;;;;;;4354947;32;20075;-59
2021/03/10 10:45:34;;;;;;;6.80;4.30;;;-11.30;70.30;;;;;;4351646;32;20078;-60
2021/03/10 10:48:00;;;;;;;7.47;4.45;;;-11.30;70.50;;;;;;4353245;32;20088;-59
2021/03/10 10:50:27;;;;;;;7.87;5.05;;;-11.50;70.00;;;;;;4341977;32;20441;-62
2021/03/10 10:52:53;;;;;;;7.72;4.70;;;-11.30;70.80;;;;;;4337938;33;20063;-61
2021/03/10 10:55:19;;;;;;;8.98;4.95;;;-11.50;70.80;;;;;;4347285;32;20175;-60
2021/03/10 10:57:46;;;;;;;7.95;3.90;;;-11.60;70.50;;;;;;4349260;32;20069;-61
2021/03/10 11:00:17;;;;;;;10.52;5.93;;;-11.50;71.30;;;;;;4342565;32;20549;-60
2021/03/10 11:02:45;;;;;;;7.45;5.18;;;-11.30;71.00;;;;;;4330107;33;20107;-62
2021/03/10 11:05:12;;;;;;;7.85;4.40;;;-11.30;71.20;;;;;;4325677;33;20059;-59
2021/03/10 11:07:39;;;;;;;9.05;5.18;;;-11.50;70.90;;;;;;4340125;32;20599;-59
2021/03/10 11:10:06;;;;;;;7.10;4.03;;;-11.70;70.40;;;;;;4333886;32;20071;-59
2021/03/10 11:12:33;;;;;;;5.70;3.62;;;-11.40;71.20;;;;;;4332724;32;20062;-60
2021/03/10 11:15:00;;;;;;;5.55;3.55;;;-11.60;71.20;;;;;;4354120;32;20146;-59
2021/03/10 11:17:26;;;;;;;9.57;5.37;;;-11.70;70.80;;;;;;4331344;32;20199;-61
2021/03/10 11:19:52;;;;;;;9.18;5.12;;;-11.30;70.30;;;;;;4351217;32;20090;-61
2021/03/10 11:22:18;;;;;;;9.00;4.53;;;-11.80;69.80;;;;;;4348203;32;20058;-59
2021/03/10 11:24:45;;;;;;;10.63;4.30;;;-11.60;70.90;;;;;;4361094;32;20544;-65
2021/03/10 11:27:13;;;;;;;10.13;4.95;;;-11.70;69.70;;;;;;4343114;32;20158;-61
2021/03/10 11:29:39;;;;;;;7.65;4.75;;;-11.30;71.60;;;;;;4355650;32;20067;-60
2021/03/10 11:32:06;;;;;;;8.65;4.82;;;-11.50;69.30;;;;;;4357234;32;20145;-63
2021/03/10 11:34:32;;;;;;;6.87;4.35;;;-11.50;69.80;;;;;;4319971;32;20164;-59
2021/03/10 11:36:58;;;;;;;6.40;4.20;;;-11.70;69.70;;;;;;4348943;32;20502;-62
2021/03/10 11:39:25;;;;;;;7.55;5.03;;;-11.80;70.70;;;;;;4357115;32;20194;-63
2021/03/10 11:41:51;;;;;;;6.65;3.50;;;-11.60;70.80;;;;;;4345468;32;20195;-63
2021/03/10 11:44:17;;;;;;;7.10;5.35;;;-11.80;70.30;;;;;;4336773;33;20096;-63
2021/03/10 11:46:43;;;;;;;7.82;5.28;;;-11.90;70.50;;;;;;4346282;33;20086;-62
2021/03/10 11:49:09;;;;;;;9.38;5.50;;;-11.40;70.00;;;;;;4333012;33;20171;-60
2021/03/10 11:51:35;;;;;;;10.40;4.37;;;-11.60;70.00;;;;;;4337046;32;20203;-59
2021/03/10 11:54:02;;;;;;;6.65;4.65;;;-11.80;71.90;;;;;;4326683;33;20489;-60
2021/03/10 11:56:29;;;;;;;8.20;5.80;;;-11.90;73.30;;;;;;4326105;33;20522;-60
2021/03/10 11:58:56;;;;;;;6.12;4.57;;;-12.20;74.80;;;;;;4320517;33;20160;-59
2021/03/10 12:01:24;;;;;;;8.30;5.20;;;-12.00;76.20;;;;;;4340721;32;20118;-61
2021/03/10 12:03:50;;;;;;;8.30;5.30;;;-12.00;76.80;;;;;;4323699;33;20098;-63
2021/03/10 12:06:17;;;;;;;7.18;5.40;;;-12.20;76.10;;;;;;4334350;33;20066;-59
2021/03/10 12:08:43;;;;;;;8.88;5.45;;;-12.10;76.10;;;;;;4311971;33;20138;-60
2021/03/10 12:11:09;;;;;;;5.82;4.10;;;-12.40;76.20;;;;;;4338343;33;20531;-60
2021/03/10 12:13:35;;;;;;;8.23;4.40;;;-12.30;76.30;;;;;;4337565;33;20130;-56
2021/03/10 12:16:02;;;;;;;8.18;4.85;;;-12.20;76.20;;;;;;4344299;32;20074;-62
2021/03/10 12:18:28;;;;;;;6.50;4.70;;;-12.20;76.80;;;;;;4345016;33;20172;-60
2021/03/10 12:20:54;;;;;;;8.02;4.97;;;-12.30;76.50;;;;;;4323244;33;20121;-61
2021/03/10 12:23:20;;;;;;;7.07;4.05;;;-12.10;77.10;;;;;;4321066;33;20051;-60
2021/03/10 12:25:46;;;;;;;7.30;5.15;;;-12.30;77.50;;;;;;4342146;33;20082;-60
2021/03/10 12:28:13;;;;;;;8.77;5.82;;;-12.40;76.60;;;;;;4349452;32;20182;-61
2021/03/10 12:30:39;;;;;;;7.57;5.55;;;-12.40;76.90;;;;;;4322845;33;20090;-60
2021/03/10 12:33:07;;;;;;;7.78;4.55;;;-12.10;76.60;;;;;;4306748;33;20489;-62
2021/03/10 12:35:33;;;;;;;5.85;4.30;;;-12.00;75.40;;;;;;4324632;32;20505;-59
2021/03/10 12:37:59;;;;;;;8.40;4.80;;;-12.50;74.90;;;;;;4336198;33;20090;-61
2021/03/10 12:40:26;;;;;;;6.20;4.10;;;-12.30;75.50;;;;;;4326568;33;20154;-59
2021/03/10 12:42:53;;;;;;;7.35;4.70;;;-12.00;77.70;;;;;;4340177;32;20075;-59
2021/03/10 12:45:20;;;;;;;5.82;4.15;;;-12.30;75.10;;;;;;4343332;32;20098;-67
2021/03/10 12:47:47;;;;;;;8.50;4.68;;;-12.40;75.20;;;;;;4341627;32;20224;-61